createdAt,value
2023-05-24T00:00:44.540Z,9.27
2023-05-24T00:02:47.893Z,12.00
2023-05-24T00:04:52.806Z,10.30
2023-05-24T00:06:56.105Z,9.33
2023-05-24T00:08:58.900Z,10.50
2023-05-24T00:11:01.793Z,12.87
2023-05-24T00:13:05.042Z,8.63
2023-05-24T00:15:10.328Z,9.57
2023-05-24T00:17:14.020Z,13.53
2023-05-24T00:19:18.250Z,9.73
2023-05-24T00:21:21.288Z,8.63
2023-05-24T00:23:24.307Z,10.93
2023-05-24T00:25:27.138Z,12.67
2023-05-24T00:27:30.218Z,12.37
2023-05-24T00:29:33.205Z,11.53
2023-05-24T00:31:37.482Z,11.73
2023-05-24T00:33:40.466Z,13.97
2023-05-24T00:35:43.266Z,10.80
2023-05-24T00:37:46.439Z,9.50
2023-05-24T00:39:49.255Z,12.30
2023-05-24T00:41:52.024Z,11.17
2023-05-24T00:43:55.066Z,11.70
2023-05-24T00:46:17.216Z,10.97
2023-05-24T00:48:22.669Z,12.87
2023-05-24T00:50:26.720Z,11.37
2023-05-24T00:52:29.774Z,13.57
2023-05-24T00:54:32.864Z,9.53
2023-05-24T00:56:37.709Z,12.97
2023-05-24T00:58:41.008Z,11.23
2023-05-24T01:00:45.224Z,9.73
2023-05-24T01:02:49.774Z,11.07
2023-05-24T01:04:56.072Z,9.80
2023-05-24T01:07:10.858Z,9.40
2023-05-24T01:09:22.916Z,8.07
2023-05-24T01:11:36.403Z,14.07
2023-05-24T01:13:47.741Z,11.83
2023-05-24T01:15:56.987Z,11.13
2023-05-24T01:18:07.943Z,13.33
2023-05-24T01:20:14.133Z,8.67
2023-05-24T01:22:27.964Z,11.30
2023-05-24T01:24:38.733Z,9.37
2023-05-24T01:26:49.292Z,9.70
2023-05-24T01:28:55.129Z,9.27
2023-05-24T01:30:58.534Z,11.47
2023-05-24T01:33:01.529Z,9.57
2023-05-24T01:35:04.707Z,13.17
2023-05-24T01:37:07.501Z,8.97
2023-05-24T01:39:11.120Z,11.87
2023-05-24T01:41:24.439Z,8.77
2023-05-24T01:43:33.810Z,11.60
2023-05-24T01:45:49.395Z,7.43
2023-05-24T01:48:08.439Z,9.83
2023-05-24T01:50:18.305Z,11.03
2023-05-24T01:52:23.619Z,9.87
2023-05-24T01:54:29.483Z,11.43
2023-05-24T01:56:33.023Z,10.60
2023-05-24T01:58:38.496Z,12.13
2023-05-24T02:00:43.597Z,10.70
2023-05-24T02:02:46.895Z,9.33
2023-05-24T02:04:50.503Z,12.30
2023-05-24T02:06:53.403Z,7.93
2023-05-24T02:08:56.310Z,11.77
2023-05-24T02:10:59.197Z,14.60
2023-05-24T02:13:02.005Z,8.50
2023-05-24T02:15:06.430Z,12.70
2023-05-24T02:17:10.694Z,11.00
2023-05-24T02:19:13.713Z,10.87
2023-05-24T02:21:16.702Z,10.70
2023-05-24T02:23:19.523Z,9.97
2023-05-24T02:25:22.544Z,10.70
2023-05-24T02:27:25.455Z,13.27
2023-05-24T02:29:28.456Z,11.07
2023-05-24T02:31:34.123Z,14.27
2023-05-24T02:33:38.549Z,10.13
2023-05-24T02:35:42.332Z,12.87
2023-05-24T02:37:45.320Z,10.93
2023-05-24T02:39:48.282Z,11.93
2023-05-24T02:41:51.093Z,9.13
2023-05-24T02:43:54.349Z,11.07
2023-05-24T02:45:57.186Z,11.73
2023-05-24T02:48:00.824Z,14.70
2023-05-24T02:50:05.775Z,12.33
2023-05-24T02:52:08.608Z,13.13
2023-05-24T02:54:11.453Z,13.60
2023-05-24T02:56:17.350Z,12.67
2023-05-24T02:58:20.224Z,10.97
2023-05-24T03:00:23.419Z,12.97
2023-05-24T03:02:28.667Z,11.40
2023-05-24T03:04:31.574Z,12.77
2023-05-24T03:06:36.065Z,12.10
2023-05-24T03:08:39.261Z,12.60
2023-05-24T03:10:42.325Z,11.80
2023-05-24T03:12:45.303Z,8.27
2023-05-24T03:14:48.164Z,10.10
2023-05-24T03:16:51.580Z,11.10
2023-05-24T03:18:55.353Z,14.40
2023-05-24T03:20:58.524Z,11.80
2023-05-24T03:23:02.675Z,12.33
2023-05-24T03:25:08.663Z,13.97
2023-05-24T03:27:11.551Z,11.03
2023-05-24T03:29:14.688Z,13.50
2023-05-24T03:31:20.833Z,12.63
2023-05-24T03:33:24.034Z,11.73
2023-05-24T03:35:27.142Z,10.30
2023-05-24T03:37:30.218Z,14.03
2023-05-24T03:39:34.556Z,13.73
2023-05-24T03:41:37.563Z,11.83
2023-05-24T03:43:40.440Z,13.27
2023-05-24T03:45:43.627Z,13.57
2023-05-24T03:47:46.698Z,9.90
2023-05-24T03:49:49.579Z,11.90
2023-05-24T03:51:52.653Z,10.57
2023-05-24T03:53:55.659Z,14.30
2023-05-24T03:55:59.868Z,10.53
2023-05-24T03:58:03.186Z,11.80
2023-05-24T04:00:07.379Z,11.60
2023-05-24T04:02:10.667Z,8.50
2023-05-24T04:04:13.633Z,7.03
2023-05-24T04:06:17.654Z,12.13
2023-05-24T04:08:20.661Z,15.73
2023-05-24T04:10:23.759Z,13.60
2023-05-24T04:12:28.087Z,10.77
2023-05-24T04:14:33.868Z,9.50
2023-05-24T04:16:40.306Z,13.60
2023-05-24T04:18:43.308Z,9.77
2023-05-24T04:20:46.421Z,10.67
2023-05-24T04:22:48.492Z,9.20
2023-05-24T04:24:53.952Z,10.40
2023-05-24T04:26:58.241Z,8.33
2023-05-24T04:29:03.743Z,9.47
2023-05-24T04:31:07.167Z,9.97
2023-05-24T04:33:12.338Z,10.80
2023-05-24T04:35:15.566Z,9.07
2023-05-24T04:37:18.652Z,13.63
2023-05-24T04:39:21.615Z,14.63
2023-05-24T04:41:24.474Z,11.50
2023-05-24T04:43:27.490Z,8.03
2023-05-24T04:45:33.043Z,13.37
2023-05-24T04:47:36.126Z,12.20
2023-05-24T04:49:39.555Z,8.77
2023-05-24T04:51:42.488Z,12.27
2023-05-24T04:53:45.446Z,12.20
2023-05-24T04:55:48.845Z,11.33
2023-05-24T04:57:51.787Z,10.23
2023-05-24T04:59:54.633Z,11.07
2023-05-24T05:01:59.003Z,12.20
2023-05-24T05:04:04.465Z,14.63
2023-05-24T05:06:08.076Z,10.93
2023-05-24T05:08:11.111Z,11.17
2023-05-24T05:10:14.270Z,13.50
2023-05-24T05:12:19.086Z,14.10
2023-05-24T05:14:26.882Z,11.17
2023-05-24T05:16:30.730Z,11.47
2023-05-24T05:18:35.386Z,10.40
2023-05-24T05:20:38.504Z,11.30
2023-05-24T05:22:48.551Z,15.57
2023-05-24T05:24:51.753Z,9.07
2023-05-24T05:26:54.880Z,8.77
2023-05-24T05:28:59.392Z,11.20
2023-05-24T05:31:04.661Z,12.77
2023-05-24T05:33:07.662Z,14.93
2023-05-24T05:35:12.332Z,11.73
2023-05-24T05:37:17.588Z,11.57
2023-05-24T05:39:20.686Z,14.00
2023-05-24T05:41:24.085Z,10.87
2023-05-24T05:43:27.245Z,13.03
2023-05-24T05:45:32.107Z,14.63
2023-05-24T05:47:35.652Z,17.13
2023-05-24T05:49:40.833Z,19.30
2023-05-24T05:51:45.978Z,15.43
2023-05-24T05:53:59.800Z,16.03
2023-05-24T05:56:03.194Z,15.77
2023-05-24T05:58:06.475Z,14.90
2023-05-24T06:00:10.799Z,16.93
2023-05-24T06:02:14.082Z,14.03
2023-05-24T06:04:20.094Z,13.00
2023-05-24T06:06:23.289Z,14.90
2023-05-24T06:08:30.279Z,16.77
2023-05-24T06:10:34.663Z,16.97
2023-05-24T06:12:38.029Z,13.70
2023-05-24T06:14:41.333Z,10.43
2023-05-24T06:16:45.947Z,13.67
2023-05-24T06:19:01.426Z,14.97
2023-05-24T06:21:10.661Z,18.07
2023-05-24T06:23:14.392Z,15.47
2023-05-24T06:25:20.866Z,10.97
2023-05-24T06:27:24.085Z,14.47
2023-05-24T06:29:27.283Z,12.03
2023-05-24T06:31:30.482Z,14.00
2023-05-24T06:33:37.627Z,14.37
2023-05-24T06:35:43.121Z,12.53
2023-05-24T06:37:51.424Z,12.90
2023-05-24T06:39:54.576Z,14.57
2023-05-24T06:41:59.396Z,17.77
2023-05-24T06:44:02.572Z,17.27
2023-05-24T06:46:05.576Z,14.13
2023-05-24T06:48:08.971Z,12.13
2023-05-24T06:50:12.466Z,13.33
2023-05-24T06:52:15.716Z,17.87
2023-05-24T06:54:19.218Z,15.23
2023-05-24T06:56:25.323Z,11.90
2023-05-24T06:58:29.854Z,10.97
2023-05-24T07:00:32.997Z,13.73
2023-05-24T07:02:38.803Z,12.13
2023-05-24T07:04:42.546Z,11.17
2023-05-24T07:06:45.917Z,14.03
2023-05-24T07:08:49.004Z,15.60
2023-05-24T07:10:55.538Z,12.80
2023-05-24T07:12:58.696Z,10.97
2023-05-24T07:15:03.550Z,14.70
2023-05-24T07:17:06.856Z,10.77
2023-05-24T07:19:10.025Z,16.33
2023-05-24T07:21:13.173Z,11.27
2023-05-24T07:23:16.327Z,15.40
2023-05-24T07:25:21.471Z,13.90
2023-05-24T07:27:24.724Z,17.90
2023-05-24T07:29:27.662Z,14.20
2023-05-24T07:31:34.784Z,13.40
2023-05-24T07:33:38.394Z,12.10
2023-05-24T07:35:43.347Z,13.03
2023-05-24T07:37:46.694Z,13.17
2023-05-24T07:39:49.753Z,13.57
2023-05-24T07:41:53.144Z,10.13
2023-05-24T07:43:56.275Z,16.37
2023-05-24T07:46:03.393Z,14.63
2023-05-24T07:48:10.534Z,17.00
2023-05-24T07:50:13.705Z,14.90
2023-05-24T07:52:16.896Z,17.27
2023-05-24T07:54:20.092Z,11.27
2023-05-24T07:56:23.849Z,14.27
2023-05-24T07:58:27.573Z,12.90
2023-05-24T08:00:30.843Z,12.97
2023-05-24T08:02:34.871Z,17.03
2023-05-24T08:04:40.139Z,15.13
2023-05-24T08:06:43.279Z,9.27
2023-05-24T08:08:47.746Z,13.80
2023-05-24T08:10:50.950Z,11.50
2023-05-24T08:12:58.982Z,13.40
2023-05-24T08:15:05.568Z,15.17
2023-05-24T08:17:08.806Z,11.50
2023-05-24T08:19:13.773Z,12.68
2023-05-24T08:21:20.612Z,18.80
2023-05-24T08:23:26.198Z,13.60
2023-05-24T08:25:33.107Z,15.13
2023-05-24T08:27:36.386Z,16.55
2023-05-24T08:29:41.008Z,12.95
2023-05-24T08:31:44.401Z,10.93
2023-05-24T08:33:50.368Z,13.18
2023-05-24T08:35:53.563Z,12.88
2023-05-24T08:37:58.013Z,13.40
2023-05-24T08:40:04.230Z,11.70
2023-05-24T08:42:10.214Z,13.40
2023-05-24T08:44:14.765Z,16.08
2023-05-24T08:46:19.240Z,12.98
2023-05-24T08:48:23.060Z,12.13
2023-05-24T08:50:27.715Z,9.35
2023-05-24T08:52:33.220Z,13.10
2023-05-24T08:54:38.637Z,12.82
2023-05-24T08:56:42.184Z,11.98
2023-05-24T08:58:47.169Z,10.88
2023-05-24T09:00:50.519Z,13.90
2023-05-24T09:02:54.615Z,13.15
2023-05-24T09:05:09.852Z,11.52
2023-05-24T09:07:14.905Z,11.80
2023-05-24T09:09:19.987Z,14.43
2023-05-24T09:11:26.935Z,11.68
2023-05-24T09:13:31.834Z,10.55
2023-05-24T09:15:35.156Z,10.60
2023-05-24T09:17:40.586Z,12.82
2023-05-24T09:19:46.471Z,14.50
2023-05-24T09:21:50.879Z,11.85
2023-05-24T09:23:54.520Z,10.13
2023-05-24T09:25:58.131Z,10.77
2023-05-24T09:28:07.979Z,9.95
2023-05-24T09:30:13.055Z,11.88
2023-05-24T09:32:16.844Z,12.52
2023-05-24T09:34:20.160Z,11.98
2023-05-24T09:36:23.429Z,11.35
2023-05-24T09:38:30.207Z,9.73
2023-05-24T09:40:34.192Z,14.63
2023-05-24T09:42:38.164Z,12.57
2023-05-24T09:44:46.029Z,12.40
2023-05-24T09:46:49.559Z,9.60
2023-05-24T09:48:59.963Z,9.48
2023-05-24T09:51:09.541Z,9.65
2023-05-24T09:53:13.155Z,11.98
2023-05-24T09:55:17.699Z,12.68
2023-05-24T09:57:23.073Z,12.27
2023-05-24T09:59:26.429Z,11.20
2023-05-24T10:01:34.989Z,11.48
2023-05-24T10:03:43.409Z,9.90
2023-05-24T10:05:48.451Z,10.68
2023-05-24T10:07:53.390Z,9.30
2023-05-24T10:09:57.803Z,11.82
2023-05-24T10:12:04.134Z,9.57
2023-05-24T10:14:08.333Z,8.50
2023-05-24T10:16:12.095Z,12.52
2023-05-24T10:18:16.973Z,12.32
2023-05-24T10:20:23.364Z,7.68
2023-05-24T10:22:30.712Z,14.27
2023-05-24T10:24:37.234Z,12.68
2023-05-24T10:26:42.600Z,10.50
2023-05-24T10:28:50.084Z,7.28
2023-05-24T10:31:03.564Z,11.70
2023-05-24T10:33:09.517Z,13.02
2023-05-24T10:35:15.251Z,10.07
2023-05-24T10:37:19.300Z,8.40
2023-05-24T10:39:23.739Z,7.57
2023-05-24T10:41:28.297Z,12.45
2023-05-24T10:43:34.283Z,7.88
2023-05-24T10:45:42.261Z,9.88
2023-05-24T10:47:48.513Z,10.35
2023-05-24T10:49:53.184Z,9.18
2023-05-24T10:52:08.303Z,8.57
2023-05-24T10:54:16.911Z,11.55
2023-05-24T10:56:23.867Z,9.95
2023-05-24T10:58:44.884Z,10.88
2023-05-24T11:00:49.076Z,9.40
2023-05-24T11:02:55.210Z,13.52
2023-05-24T11:05:00.355Z,11.95
2023-05-24T11:07:09.541Z,13.35
2023-05-24T11:09:12.772Z,12.75
2023-05-24T11:11:24.320Z,7.82
2023-05-24T11:13:29.146Z,8.38
2023-05-24T11:15:34.937Z,13.18
2023-05-24T11:18:17.125Z,8.43
2023-05-24T11:20:21.663Z,9.55
2023-05-24T11:22:27.063Z,11.23
2023-05-24T11:24:30.376Z,11.25
2023-05-24T11:26:33.910Z,12.27
2023-05-24T11:28:39.116Z,10.93
2023-05-24T11:30:43.058Z,10.55
2023-05-24T11:32:49.963Z,10.68
2023-05-24T11:34:53.468Z,9.15
2023-05-24T11:36:56.736Z,9.57
2023-05-24T11:39:01.906Z,11.32
2023-05-24T11:41:05.371Z,10.13
2023-05-24T11:43:08.563Z,11.13
2023-05-24T11:45:13.915Z,9.88
2023-05-24T11:47:17.043Z,7.28
2023-05-24T11:49:20.845Z,7.85
2023-05-24T11:51:28.028Z,7.85
2023-05-24T11:53:31.259Z,11.82
2023-05-24T11:55:36.668Z,8.23
2023-05-24T11:57:42.612Z,9.90
2023-05-24T11:59:45.911Z,9.65
2023-05-24T12:01:52.766Z,9.85
2023-05-24T12:04:00.487Z,13.05
2023-05-24T12:06:04.002Z,8.20
2023-05-24T12:08:12.339Z,9.10
2023-05-24T12:10:16.325Z,9.40
2023-05-24T12:12:27.103Z,9.68
2023-05-24T12:14:39.861Z,9.38
2023-05-24T12:16:44.205Z,11.55
2023-05-24T12:19:02.172Z,7.63
2023-05-24T12:21:13.051Z,10.05
2023-05-24T12:23:17.779Z,9.55
2023-05-24T12:25:21.945Z,8.18
2023-05-24T12:27:30.966Z,7.82
2023-05-24T12:29:35.597Z,11.80
2023-05-24T12:31:39.842Z,9.82
2023-05-24T12:33:43.751Z,8.25
2023-05-24T12:35:53.492Z,10.50
2023-05-24T12:38:01.068Z,9.27
2023-05-24T12:45:38.024Z,17.63
2023-05-24T12:47:43.321Z,9.52
2023-05-24T12:49:55.434Z,8.95
2023-05-24T12:52:02.898Z,9.68
2023-05-24T12:54:06.219Z,9.98
2023-05-24T12:56:10.060Z,9.02
2023-05-24T12:58:17.574Z,9.40
2023-05-24T13:00:27.085Z,9.90
2023-05-24T13:02:30.558Z,8.45
2023-05-24T13:04:37.000Z,10.57
2023-05-24T13:06:40.433Z,11.98
2023-05-24T13:08:49.515Z,9.10
2023-05-24T13:10:56.594Z,7.68
2023-05-24T13:13:02.378Z,6.55
2023-05-24T13:15:06.307Z,10.43
2023-05-24T13:17:09.920Z,7.80
2023-05-24T13:19:13.145Z,8.90
2023-05-24T13:21:17.621Z,9.77
2023-05-24T13:23:24.768Z,12.13
2023-05-24T13:25:27.938Z,9.07
2023-05-24T13:27:31.361Z,9.60
2023-05-24T13:29:45.452Z,9.10
2023-05-24T13:31:53.859Z,7.32
2023-05-24T13:33:57.010Z,8.02
2023-05-24T13:36:03.332Z,7.38
2023-05-24T13:38:11.292Z,7.30
2023-05-24T13:40:14.589Z,6.95
2023-05-24T13:42:19.080Z,8.15
2023-05-24T13:44:22.605Z,10.75
2023-05-24T13:46:26.166Z,7.25
2023-05-24T13:48:29.532Z,7.18
2023-05-24T13:50:32.890Z,6.00
2023-05-24T13:52:36.915Z,7.13
2023-05-24T13:54:41.355Z,8.35
2023-05-24T13:56:44.913Z,4.82
2023-05-24T13:58:48.098Z,7.00
2023-05-24T14:00:51.335Z,6.85
2023-05-24T14:02:54.508Z,6.00
2023-05-24T14:05:08.622Z,7.90
2023-05-24T14:07:20.889Z,7.13
2023-05-24T14:09:26.007Z,7.43
2023-05-24T14:11:31.678Z,6.25
2023-05-24T14:15:40.877Z,6.82
2023-05-24T14:17:44.025Z,6.93
2023-05-24T14:19:47.006Z,7.20
2023-05-24T14:21:49.941Z,6.22
2023-05-24T14:23:53.022Z,5.65
2023-05-24T14:25:56.772Z,6.85
2023-05-24T14:28:01.447Z,4.97
2023-05-24T14:30:05.038Z,8.10
2023-05-24T14:32:08.437Z,9.45
2023-05-24T14:34:13.106Z,6.50
2023-05-24T14:36:16.025Z,6.28
2023-05-24T14:38:19.121Z,7.25
2023-05-24T14:40:22.143Z,7.03
2023-05-24T14:42:25.112Z,6.05
2023-05-24T14:44:29.499Z,5.97
2023-05-24T14:46:35.947Z,8.55
2023-05-24T14:48:41.401Z,6.68
2023-05-24T14:50:44.692Z,8.90
2023-05-24T14:52:47.652Z,7.25
2023-05-24T14:54:50.682Z,8.57
2023-05-24T14:56:53.922Z,6.03
2023-05-24T14:58:57.450Z,7.32
2023-05-24T15:01:01.862Z,9.30
2023-05-24T15:03:06.122Z,8.55
2023-05-24T15:05:09.733Z,7.43
2023-05-24T15:07:12.893Z,7.88
2023-05-24T15:09:16.402Z,6.00
2023-05-24T15:11:19.410Z,7.25
2023-05-24T15:13:23.143Z,6.95
2023-05-24T15:15:26.151Z,7.03
2023-05-24T15:17:30.634Z,8.13
2023-05-24T15:19:33.718Z,4.97
2023-05-24T15:21:38.182Z,7.22
2023-05-24T15:23:41.643Z,6.35
2023-05-24T15:25:46.109Z,6.47
2023-05-24T15:27:49.351Z,5.63
2023-05-24T15:29:54.539Z,7.47
2023-05-24T15:31:58.571Z,5.78
2023-05-24T15:34:04.806Z,5.18
2023-05-24T15:36:08.441Z,6.60
2023-05-24T15:38:11.432Z,5.68
2023-05-24T15:40:15.147Z,8.88
2023-05-24T15:42:18.164Z,5.07
2023-05-24T15:44:21.409Z,8.82
2023-05-24T15:46:24.580Z,6.50
2023-05-24T15:48:27.577Z,6.95
2023-05-24T15:50:51.951Z,6.72
2023-05-24T15:52:56.324Z,6.03
2023-05-24T15:54:59.398Z,6.05
2023-05-24T15:57:02.891Z,7.63
2023-05-24T15:59:06.164Z,6.57
2023-05-24T16:01:41.999Z,5.65
2023-05-24T16:04:13.624Z,7.15
2023-05-24T16:06:27.511Z,6.63
2023-05-24T16:08:39.090Z,6.22
2023-05-24T16:11:34.425Z,7.97
2023-05-24T16:13:52.444Z,5.72
2023-05-24T16:15:59.889Z,4.47
2023-05-24T16:18:08.445Z,7.82
2023-05-24T16:20:16.728Z,8.02
2023-05-24T16:22:40.712Z,7.53
2023-05-24T16:24:50.057Z,9.13
2023-05-24T16:27:15.530Z,9.88
2023-05-24T16:31:41.128Z,9.55
2023-05-24T16:33:44.043Z,7.78
2023-05-24T16:35:48.363Z,7.95
2023-05-24T16:37:55.912Z,6.75
2023-05-24T16:39:58.919Z,7.28
2023-05-24T16:42:03.788Z,6.93
2023-05-24T16:44:07.206Z,7.35
2023-05-24T16:46:11.027Z,9.13
2023-05-24T16:48:14.927Z,7.05
2023-05-24T16:50:26.538Z,6.28
2023-05-24T16:52:29.874Z,5.20
2023-05-24T16:54:39.388Z,9.52
2023-05-24T16:56:50.564Z,7.40
2023-05-24T16:59:02.638Z,8.27
2023-05-24T17:01:10.280Z,12.07
2023-05-24T17:03:16.302Z,7.80
2023-05-24T17:05:19.314Z,7.35
2023-05-24T17:07:22.359Z,9.88
2023-05-24T17:09:25.506Z,9.80
2023-05-24T17:11:30.044Z,8.02
2023-05-24T17:13:33.706Z,7.57
2023-05-24T17:15:37.063Z,9.60
2023-05-24T17:17:40.110Z,9.20
2023-05-24T17:19:43.351Z,7.22
2023-05-24T17:21:46.793Z,7.32
2023-05-24T17:23:49.949Z,10.00
2023-05-24T17:25:53.151Z,7.15
2023-05-24T17:27:57.559Z,6.68
2023-05-24T17:30:00.688Z,7.70
2023-05-24T17:32:03.852Z,11.77
2023-05-24T17:34:06.965Z,9.23
2023-05-24T17:36:09.991Z,6.95
2023-05-24T17:38:13.079Z,7.22
2023-05-24T17:40:16.488Z,6.72
2023-05-24T17:42:19.520Z,10.80
2023-05-24T17:44:23.846Z,8.50
2023-05-24T17:46:27.259Z,8.02
2023-05-24T17:48:31.882Z,8.48
2023-05-24T17:50:37.569Z,9.27
2023-05-24T17:52:40.615Z,7.35
2023-05-24T17:54:43.631Z,9.20
2023-05-24T17:56:46.616Z,10.50
2023-05-24T17:58:50.138Z,9.00
2023-05-24T18:00:54.670Z,8.07
2023-05-24T18:02:57.805Z,7.78
2023-05-24T18:05:01.027Z,9.70
2023-05-24T18:07:04.243Z,9.85
2023-05-24T18:09:07.226Z,8.18
2023-05-24T18:11:12.829Z,8.73
2023-05-24T18:13:15.910Z,7.85
2023-05-24T18:15:18.936Z,9.27
2023-05-24T18:17:23.544Z,10.25
2023-05-24T18:19:27.341Z,9.82
2023-05-24T18:21:30.467Z,10.40
2023-05-24T18:23:37.353Z,12.05
2023-05-24T18:25:40.619Z,9.20
2023-05-24T18:27:43.757Z,8.65
2023-05-24T18:29:46.861Z,12.10
2023-05-24T18:31:49.983Z,10.98
2023-05-24T18:33:54.437Z,11.32
2023-05-24T18:35:57.558Z,10.43
2023-05-24T18:38:00.592Z,6.70
2023-05-24T18:40:03.920Z,10.85
2023-05-24T18:42:08.977Z,10.13
2023-05-24T18:44:12.108Z,11.15
2023-05-24T18:46:16.432Z,12.55
2023-05-24T18:48:19.461Z,12.27
2023-05-24T18:50:23.946Z,11.05
2023-05-24T18:52:27.127Z,9.15
2023-05-24T18:54:30.185Z,9.98
2023-05-24T18:56:33.279Z,11.75
2023-05-24T18:58:36.361Z,9.30
2023-05-24T19:00:41.683Z,8.38
2023-05-24T19:02:44.870Z,10.90
2023-05-24T19:04:49.124Z,8.43
2023-05-24T19:06:55.664Z,8.68
2023-05-24T19:09:00.159Z,9.63
2023-05-24T19:11:04.178Z,8.75
2023-05-24T19:13:09.796Z,8.85
2023-05-24T19:15:14.993Z,12.85
2023-05-24T19:17:20.799Z,9.02
2023-05-24T19:19:25.776Z,9.07
2023-05-24T19:21:31.327Z,10.55
2023-05-24T19:23:36.290Z,8.73
2023-05-24T19:25:42.251Z,11.18
2023-05-24T19:27:59.424Z,10.93
2023-05-24T19:30:05.256Z,11.63
2023-05-24T19:32:11.739Z,10.50
2023-05-24T19:34:15.216Z,11.33
2023-05-24T19:36:20.013Z,12.50
2023-05-24T19:38:23.097Z,11.93
2023-05-24T19:40:27.634Z,11.93
2023-05-24T19:42:30.745Z,11.33
2023-05-24T19:44:35.018Z,10.97
2023-05-24T19:49:56.365Z,10.57
2023-05-24T19:52:20.093Z,10.07
2023-05-24T19:54:25.708Z,8.43
2023-05-24T19:56:37.443Z,11.90
2023-05-24T20:01:31.308Z,10.57
2023-05-24T20:03:57.247Z,9.40
2023-05-24T20:06:02.409Z,9.60
2023-05-24T20:08:52.976Z,12.23
2023-05-24T20:11:37.061Z,13.87
2023-05-24T20:14:29.511Z,12.87
2023-05-24T20:24:58.179Z,11.03
2023-05-24T20:27:39.219Z,12.33
2023-05-24T20:40:27.888Z,9.50
2023-05-24T20:46:29.147Z,11.87
2023-05-24T20:51:27.266Z,8.87
2023-05-24T20:54:22.949Z,11.43
2023-05-24T20:57:03.149Z,8.10
2023-05-24T20:59:50.562Z,9.30
2023-05-24T21:04:17.656Z,9.07
2023-05-24T21:06:21.585Z,7.43
2023-05-24T21:08:26.235Z,9.97
2023-05-24T21:10:29.569Z,10.67
2023-05-24T21:12:37.026Z,8.03
2023-05-24T21:14:40.150Z,8.97
2023-05-24T21:16:43.330Z,8.40
2023-05-24T21:18:48.854Z,8.87
2023-05-24T21:20:51.961Z,10.57
2023-05-24T21:22:55.170Z,9.10
2023-05-24T21:24:58.313Z,8.07
2023-05-24T21:27:01.361Z,10.03
2023-05-24T21:29:05.869Z,8.43
2023-05-24T21:31:08.989Z,9.67
2023-05-24T21:33:12.345Z,9.27
2023-05-24T21:35:15.644Z,11.07
2023-05-24T21:37:18.921Z,13.23
2023-05-24T21:39:22.033Z,9.03
2023-05-24T21:41:26.853Z,9.00
2023-05-24T21:43:30.164Z,10.30
2023-05-24T21:45:34.814Z,9.23
2023-05-24T21:47:38.059Z,9.07
2023-05-24T21:49:41.463Z,12.43
2023-05-24T21:51:44.546Z,8.27
2023-05-24T21:53:47.712Z,8.50
2023-05-24T21:55:51.694Z,8.30
2023-05-24T21:57:54.862Z,10.23
2023-05-24T21:59:58.102Z,12.67
2023-05-24T22:02:02.765Z,9.23
2023-05-24T22:04:10.227Z,9.90
2023-05-24T22:06:13.399Z,7.43
2023-05-24T22:08:17.186Z,10.73
2023-05-24T22:10:20.774Z,5.37
2023-05-24T22:12:25.814Z,7.30
2023-05-24T22:14:29.972Z,6.73
2023-05-24T22:16:33.308Z,8.47
2023-05-24T22:18:37.893Z,7.30
2023-05-24T22:20:41.204Z,10.07
2023-05-24T22:22:48.357Z,6.00
2023-05-24T22:24:54.494Z,9.63
2023-05-24T22:27:00.709Z,9.13
2023-05-24T22:29:12.109Z,8.40
2023-05-24T22:31:15.817Z,10.33
2023-05-24T22:33:19.072Z,6.90
2023-05-24T22:35:25.597Z,9.57
2023-05-24T22:37:28.981Z,6.87
2023-05-24T22:39:32.098Z,9.93
2023-05-24T22:41:35.425Z,8.50
2023-05-24T22:43:38.518Z,8.30
2023-05-24T22:45:41.796Z,6.23
2023-05-24T22:47:49.240Z,8.60
2023-05-24T22:49:55.044Z,7.53
2023-05-24T22:52:00.382Z,5.10
2023-05-24T22:54:03.424Z,10.90
2023-05-24T22:56:07.799Z,7.63
2023-05-24T22:58:11.165Z,7.90
2023-05-24T23:00:15.514Z,7.03
2023-05-24T23:02:18.631Z,6.33
2023-05-24T23:04:27.668Z,6.53
2023-05-24T23:06:31.884Z,7.13
2023-05-24T23:08:37.510Z,6.43
2023-05-24T23:10:45.748Z,6.20
2023-05-24T23:12:48.873Z,8.47
2023-05-24T23:14:51.932Z,9.90
2023-05-24T23:16:55.296Z,6.87
2023-05-24T23:18:58.588Z,8.37
2023-05-24T23:21:02.950Z,8.10
2023-05-24T23:23:07.201Z,7.90
2023-05-24T23:25:12.070Z,7.43
2023-05-24T23:27:15.239Z,6.70
2023-05-24T23:29:18.444Z,8.00
2023-05-24T23:31:21.547Z,7.80
2023-05-24T23:33:24.477Z,7.60
2023-05-24T23:35:27.414Z,8.43
2023-05-24T23:37:30.578Z,6.27
2023-05-24T23:39:33.974Z,9.77
2023-05-24T23:41:41.033Z,8.40
2023-05-24T23:43:44.236Z,7.87
2023-05-24T23:45:47.324Z,11.10
2023-05-24T23:47:53.131Z,9.63
2023-05-24T23:49:55.984Z,9.07
2023-05-24T23:51:58.942Z,9.93
2023-05-24T23:54:02.555Z,10.10
2023-05-24T23:56:06.023Z,10.97
2023-05-24T23:58:10.306Z,10.33
